YZR7463 ZYHB-ZSNJ
Flight info
| Callsign | YZR7463 |
|---|---|
| Flight time | 2h 30m |
| Altitude | 32100 |
| Route | DUKIR W655 NIMEM W205 NULRA A588 VENOS MAKNO W5 TAO W174 XDX MABEB GURIL RUXEL W178 OF |
| Aircraft | B744/H-SDE2E3FGILRWXY/LB2 |
Departure
| Time | 2026-04-20 05:15 |
|---|---|
| Airport | Harbin Taiping International Airport (ZYHB) |
Arrival
| Time | 2026-04-20 07:45 |
|---|---|
| Airport | Nanjing Lukou International Airport (ZSNJ) |
| Time | Latitude | Longitude | Altitude | Speed | Heading |
|---|---|---|---|---|---|
| 2026-04-20 04:54 | 45.63446 | 126.25712 | 515 ft | 0 kts | 129° |
| 2026-04-20 05:10 | 45.63434 | 126.25734 | 514 ft | 6 kts | 129° |
| 2026-04-20 05:11 | 45.63411 | 126.25803 | 514 ft | 8 kts | 79° |
| 2026-04-20 05:11 | 45.63466 | 126.25892 | 514 ft | 9 kts | 39° |
| 2026-04-20 05:11 | 45.63502 | 126.25935 | 514 ft | 10 kts | 39° |
| 2026-04-20 05:11 | 45.63562 | 126.26005 | 514 ft | 11 kts | 39° |
| 2026-04-20 05:12 | 45.63638 | 126.26104 | 514 ft | 9 kts | 72° |
| 2026-04-20 05:12 | 45.63615 | 126.26196 | 514 ft | 10 kts | 130° |
| 2026-04-20 05:12 | 45.63584 | 126.26248 | 514 ft | 10 kts | 133° |
| 2026-04-20 05:12 | 45.63518 | 126.26288 | 514 ft | 10 kts | 174° |
| 2026-04-20 05:13 | 45.63444 | 126.26291 | 514 ft | 10 kts | 183° |
| 2026-04-20 05:13 | 45.63385 | 126.26244 | 514 ft | 0 kts | 220° |
| 2026-04-20 05:14 | 45.63327 | 126.26175 | 514 ft | 34 kts | 219° |
| 2026-04-20 05:14 | 45.62762 | 126.25513 | 515 ft | 121 kts | 220° |
| 2026-04-20 05:14 | 45.62255 | 126.24918 | 516 ft | 158 kts | 223° |
| 2026-04-20 05:14 | 45.61305 | 126.23811 | 698 ft | 190 kts | 221° |
| 2026-04-20 05:15 | 45.60231 | 126.22606 | 1343 ft | 198 kts | 222° |
| 2026-04-20 05:15 | 45.58841 | 126.20990 | 2516 ft | 193 kts | 222° |
| 2026-04-20 05:15 | 45.58127 | 126.20171 | 2820 ft | 202 kts | 222° |
| 2026-04-20 05:15 | 45.57010 | 126.18865 | 3479 ft | 205 kts | 222° |
| 2026-04-20 05:16 | 45.55915 | 126.17590 | 4186 ft | 205 kts | 222° |
| 2026-04-20 05:16 | 45.54412 | 126.15829 | 4830 ft | 218 kts | 222° |
| 2026-04-20 05:16 | 45.53210 | 126.14425 | 5207 ft | 230 kts | 221° |
| 2026-04-20 05:16 | 45.52385 | 126.13463 | 5579 ft | 232 kts | 221° |
| 2026-04-20 05:17 | 45.50705 | 126.11508 | 6367 ft | 236 kts | 222° |
| 2026-04-20 05:17 | 45.49849 | 126.10512 | 6749 ft | 239 kts | 221° |
| 2026-04-20 05:17 | 45.48124 | 126.08504 | 7428 ft | 247 kts | 221° |
| 2026-04-20 05:17 | 45.46780 | 126.06950 | 7913 ft | 254 kts | 221° |
| 2026-04-20 05:18 | 45.45407 | 126.05364 | 8508 ft | 256 kts | 221° |
| 2026-04-20 05:18 | 45.44482 | 126.04293 | 8929 ft | 257 kts | 222° |
| 2026-04-20 05:18 | 45.43102 | 126.02692 | 9547 ft | 258 kts | 222° |
| 2026-04-20 05:18 | 45.41251 | 126.00536 | 10319 ft | 261 kts | 222° |
| 2026-04-20 05:19 | 45.40305 | 125.99433 | 10662 ft | 263 kts | 222° |
| 2026-04-20 05:19 | 45.38403 | 125.97206 | 11284 ft | 269 kts | 223° |
| 2026-04-20 05:19 | 45.37420 | 125.96094 | 11537 ft | 275 kts | 217° |
| 2026-04-20 05:19 | 45.35661 | 125.94936 | 11830 ft | 291 kts | 198° |
| 2026-04-20 05:20 | 45.33568 | 125.94636 | 12078 ft | 309 kts | 184° |
| 2026-04-20 05:20 | 45.31408 | 125.94773 | 12542 ft | 313 kts | 183° |
| 2026-04-20 05:20 | 45.29241 | 125.94833 | 13021 ft | 315 kts | 185° |
| 2026-04-20 05:20 | 45.26305 | 125.94871 | 13694 ft | 317 kts | 185° |
| 2026-04-20 05:21 | 45.24822 | 125.94869 | 14018 ft | 318 kts | 186° |
| 2026-04-20 05:21 | 45.21875 | 125.94855 | 14678 ft | 319 kts | 186° |
| 2026-04-20 05:21 | 45.20401 | 125.94846 | 14981 ft | 320 kts | 186° |
| 2026-04-20 05:21 | 45.17434 | 125.94821 | 15589 ft | 322 kts | 186° |
| 2026-04-20 05:22 | 45.15935 | 125.94811 | 15882 ft | 323 kts | 186° |
| 2026-04-20 05:22 | 45.13680 | 125.94799 | 16305 ft | 324 kts | 186° |
| 2026-04-20 05:22 | 45.10686 | 125.94773 | 16840 ft | 326 kts | 186° |
| 2026-04-20 05:22 | 45.08427 | 125.94758 | 17218 ft | 328 kts | 186° |
| 2026-04-20 05:23 | 45.06890 | 125.94743 | 17454 ft | 330 kts | 186° |
| 2026-04-20 05:23 | 45.04609 | 125.94725 | 17818 ft | 332 kts | 186° |
| 2026-04-20 05:23 | 45.02284 | 125.94704 | 18184 ft | 333 kts | 186° |
| 2026-04-20 05:23 | 44.99982 | 125.94678 | 18536 ft | 334 kts | 186° |
| 2026-04-20 05:24 | 44.96868 | 125.94653 | 19038 ft | 335 kts | 185° |
| 2026-04-20 05:24 | 44.95331 | 125.94635 | 19274 ft | 336 kts | 186° |
| 2026-04-20 05:24 | 44.92181 | 125.94612 | 19718 ft | 338 kts | 186° |
| 2026-04-20 05:24 | 44.90621 | 125.94600 | 19949 ft | 344 kts | 186° |
| 2026-04-20 05:25 | 44.88205 | 125.94584 | 20524 ft | 349 kts | 185° |
| 2026-04-20 05:25 | 44.85777 | 125.94572 | 21175 ft | 352 kts | 185° |
| 2026-04-20 05:25 | 44.83330 | 125.94546 | 21797 ft | 354 kts | 186° |
| 2026-04-20 05:25 | 44.80882 | 125.94524 | 22347 ft | 357 kts | 185° |
| 2026-04-20 05:26 | 44.78393 | 125.94488 | 22932 ft | 360 kts | 186° |
| 2026-04-20 05:26 | 44.75044 | 125.94425 | 23714 ft | 361 kts | 187° |
| 2026-04-20 05:26 | 44.72561 | 125.94078 | 24201 ft | 359 kts | 194° |
| 2026-04-20 05:26 | 44.70938 | 125.93685 | 24562 ft | 360 kts | 194° |
| 2026-04-20 05:27 | 44.67627 | 125.92965 | 25228 ft | 363 kts | 193° |
| 2026-04-20 05:27 | 44.65113 | 125.92445 | 25698 ft | 364 kts | 193° |
| 2026-04-20 05:27 | 44.63439 | 125.92081 | 25998 ft | 365 kts | 193° |
| 2026-04-20 05:27 | 44.60879 | 125.91532 | 26412 ft | 368 kts | 193° |
| 2026-04-20 05:28 | 44.58317 | 125.90964 | 26845 ft | 369 kts | 194° |
| 2026-04-20 05:28 | 44.55719 | 125.90374 | 27236 ft | 372 kts | 194° |
| 2026-04-20 05:28 | 44.53133 | 125.89760 | 27606 ft | 373 kts | 195° |
| 2026-04-20 05:28 | 44.49719 | 125.89026 | 28154 ft | 375 kts | 193° |
| 2026-04-20 05:29 | 44.48003 | 125.88684 | 28365 ft | 376 kts | 194° |
| 2026-04-20 05:29 | 44.45412 | 125.88119 | 28682 ft | 377 kts | 194° |
| 2026-04-20 05:29 | 44.42768 | 125.87560 | 28991 ft | 379 kts | 194° |
| 2026-04-20 05:29 | 44.40160 | 125.87009 | 29297 ft | 379 kts | 194° |
| 2026-04-20 05:30 | 44.36660 | 125.86252 | 29699 ft | 380 kts | 194° |
| 2026-04-20 05:30 | 44.34029 | 125.85712 | 29989 ft | 381 kts | 194° |
| 2026-04-20 05:30 | 44.32283 | 125.85342 | 30180 ft | 381 kts | 194° |
| 2026-04-20 05:30 | 44.29625 | 125.84757 | 30427 ft | 382 kts | 194° |
| 2026-04-20 05:31 | 44.26974 | 125.84178 | 30650 ft | 384 kts | 195° |
| 2026-04-20 05:31 | 44.24294 | 125.83569 | 30864 ft | 386 kts | 195° |
| 2026-04-20 05:31 | 44.21616 | 125.82903 | 31050 ft | 388 kts | 197° |
| 2026-04-20 05:31 | 44.18009 | 125.82109 | 31339 ft | 393 kts | 193° |
| 2026-04-20 05:32 | 44.16197 | 125.81763 | 31478 ft | 394 kts | 194° |
| 2026-04-20 05:32 | 44.12506 | 125.80982 | 31701 ft | 403 kts | 192° |
| 2026-04-20 05:32 | 44.10634 | 125.80861 | 31744 ft | 415 kts | 184° |
| 2026-04-20 05:32 | 44.07690 | 125.81505 | 31813 ft | 434 kts | 170° |
| 2026-04-20 05:33 | 44.04847 | 125.83035 | 31890 ft | 450 kts | 163° |
| 2026-04-20 05:33 | 44.00954 | 125.85407 | 31920 ft | 462 kts | 165° |
| 2026-04-20 05:33 | 43.98962 | 125.86543 | 31929 ft | 468 kts | 165° |
| 2026-04-20 05:34 | 43.92702 | 125.88644 | 31896 ft | 458 kts | 186° |
| 2026-04-20 05:34 | 43.83399 | 125.86726 | 31877 ft | 453 kts | 195° |
| 2026-04-20 05:35 | 43.76279 | 125.84398 | 31827 ft | 445 kts | 208° |
| 2026-04-20 05:35 | 43.70819 | 125.80537 | 31853 ft | 443 kts | 210° |
| 2026-04-20 05:36 | 43.66223 | 125.77291 | 31833 ft | 444 kts | 211° |
| 2026-04-20 05:36 | 43.60615 | 125.73322 | 31823 ft | 445 kts | 211° |
| 2026-04-20 05:37 | 43.54156 | 125.68736 | 31830 ft | 444 kts | 211° |
| 2026-04-20 05:37 | 43.48558 | 125.64757 | 31839 ft | 445 kts | 211° |
| 2026-04-20 05:38 | 43.43016 | 125.60833 | 31818 ft | 445 kts | 211° |
| 2026-04-20 05:38 | 43.38370 | 125.57549 | 31824 ft | 446 kts | 211° |
| 2026-04-20 05:39 | 43.32793 | 125.53610 | 31842 ft | 447 kts | 211° |
| 2026-04-20 05:39 | 43.27191 | 125.49676 | 31825 ft | 445 kts | 211° |
| 2026-04-20 05:40 | 43.21634 | 125.45765 | 31834 ft | 446 kts | 211° |
| 2026-04-20 05:40 | 43.16034 | 125.41846 | 31837 ft | 446 kts | 211° |
| 2026-04-20 05:41 | 43.10424 | 125.37913 | 31854 ft | 446 kts | 211° |
| 2026-04-20 05:41 | 43.04839 | 125.34010 | 31858 ft | 446 kts | 211° |
| 2026-04-20 05:42 | 42.99326 | 125.30173 | 31862 ft | 448 kts | 211° |
| 2026-04-20 05:42 | 42.93760 | 125.26318 | 31847 ft | 449 kts | 211° |
| 2026-04-20 05:43 | 42.88204 | 125.22465 | 31863 ft | 448 kts | 211° |
| 2026-04-20 05:43 | 42.82692 | 125.18561 | 31865 ft | 448 kts | 212° |
| 2026-04-20 05:44 | 42.77145 | 125.14709 | 31863 ft | 449 kts | 212° |
| 2026-04-20 05:44 | 42.70658 | 125.10178 | 31866 ft | 449 kts | 212° |
| 2026-04-20 05:45 | 42.66022 | 125.06928 | 31868 ft | 450 kts | 212° |
| 2026-04-20 05:45 | 42.59426 | 125.02329 | 31892 ft | 453 kts | 212° |
| 2026-04-20 05:46 | 42.54698 | 124.99033 | 31916 ft | 453 kts | 212° |
| 2026-04-20 05:46 | 42.48991 | 124.95063 | 31892 ft | 452 kts | 212° |
| 2026-04-20 05:47 | 42.43341 | 124.91133 | 31848 ft | 450 kts | 213° |
| 2026-04-20 05:47 | 42.37691 | 124.87228 | 31847 ft | 453 kts | 213° |
| 2026-04-20 05:48 | 42.32023 | 124.83296 | 31861 ft | 455 kts | 213° |
| 2026-04-20 05:48 | 42.26365 | 124.79399 | 31869 ft | 453 kts | 213° |
| 2026-04-20 05:49 | 42.20645 | 124.75456 | 31861 ft | 454 kts | 213° |
| 2026-04-20 05:49 | 42.14933 | 124.71532 | 31863 ft | 454 kts | 213° |
| 2026-04-20 05:50 | 42.09222 | 124.67644 | 31887 ft | 457 kts | 213° |
| 2026-04-20 05:50 | 42.03492 | 124.63726 | 31904 ft | 459 kts | 213° |
| 2026-04-20 05:51 | 41.97782 | 124.59668 | 31905 ft | 456 kts | 216° |
| 2026-04-20 05:51 | 41.91340 | 124.54813 | 31901 ft | 456 kts | 216° |
| 2026-04-20 05:52 | 41.86688 | 124.51271 | 31934 ft | 456 kts | 216° |
| 2026-04-20 05:52 | 41.81228 | 124.47110 | 31907 ft | 452 kts | 216° |
| 2026-04-20 05:53 | 41.75756 | 124.42974 | 31935 ft | 450 kts | 216° |
| 2026-04-20 05:53 | 41.69383 | 124.38143 | 31922 ft | 451 kts | 217° |
| 2026-04-20 05:54 | 41.64779 | 124.34667 | 31913 ft | 452 kts | 216° |
| 2026-04-20 05:54 | 41.58304 | 124.29785 | 31928 ft | 451 kts | 216° |
| 2026-04-20 05:55 | 41.53722 | 124.26333 | 31949 ft | 451 kts | 216° |
| 2026-04-20 05:55 | 41.48219 | 124.22213 | 31970 ft | 449 kts | 216° |
| 2026-04-20 05:56 | 41.42706 | 124.18018 | 31944 ft | 449 kts | 217° |
| 2026-04-20 05:56 | 41.37266 | 124.13902 | 31967 ft | 450 kts | 214° |
| 2026-04-20 05:57 | 41.31724 | 124.09969 | 31881 ft | 448 kts | 215° |
| 2026-04-20 05:57 | 41.26172 | 124.05982 | 31886 ft | 445 kts | 216° |
| 2026-04-20 05:58 | 41.20673 | 124.02043 | 31903 ft | 446 kts | 216° |
| 2026-04-20 05:58 | 41.14239 | 123.97407 | 31927 ft | 446 kts | 216° |
| 2026-04-20 05:59 | 41.09680 | 123.94125 | 31946 ft | 445 kts | 216° |
| 2026-04-20 05:59 | 41.04168 | 123.90205 | 31960 ft | 445 kts | 216° |
| 2026-04-20 06:00 | 40.98659 | 123.86242 | 31964 ft | 440 kts | 217° |
| 2026-04-20 06:00 | 40.93167 | 123.82368 | 31968 ft | 443 kts | 217° |
| 2026-04-20 06:01 | 40.87706 | 123.78449 | 31984 ft | 443 kts | 217° |
| 2026-04-20 06:01 | 40.81543 | 123.73791 | 31973 ft | 440 kts | 217° |
| 2026-04-20 06:02 | 40.77043 | 123.70613 | 31977 ft | 441 kts | 217° |
| 2026-04-20 06:02 | 40.71662 | 123.66699 | 31976 ft | 440 kts | 217° |
| 2026-04-20 06:03 | 40.66214 | 123.62780 | 31985 ft | 440 kts | 218° |
| 2026-04-20 06:03 | 40.60846 | 123.58786 | 31980 ft | 437 kts | 218° |
| 2026-04-20 06:04 | 40.55537 | 123.54701 | 31982 ft | 439 kts | 217° |
| 2026-04-20 06:04 | 40.49229 | 123.50251 | 31993 ft | 439 kts | 217° |
| 2026-04-20 06:05 | 40.44774 | 123.47041 | 32002 ft | 437 kts | 218° |
| 2026-04-20 06:05 | 40.39333 | 123.43121 | 32011 ft | 439 kts | 218° |
| 2026-04-20 06:06 | 40.33923 | 123.39181 | 32010 ft | 439 kts | 217° |
| 2026-04-20 06:06 | 40.28532 | 123.35271 | 32019 ft | 439 kts | 217° |
| 2026-04-20 06:07 | 40.23176 | 123.31403 | 32045 ft | 443 kts | 217° |
| 2026-04-20 06:07 | 40.17791 | 123.27496 | 32034 ft | 441 kts | 217° |
| 2026-04-20 06:08 | 40.12410 | 123.23689 | 32032 ft | 442 kts | 218° |
| 2026-04-20 06:08 | 40.07042 | 123.19719 | 32043 ft | 440 kts | 218° |
| 2026-04-20 06:09 | 40.01708 | 123.15710 | 32055 ft | 442 kts | 216° |
| 2026-04-20 06:09 | 39.96231 | 123.11842 | 32074 ft | 443 kts | 217° |
| 2026-04-20 06:10 | 39.90780 | 123.07911 | 32063 ft | 442 kts | 217° |
| 2026-04-20 06:10 | 39.85455 | 123.04068 | 32041 ft | 438 kts | 217° |
| 2026-04-20 06:11 | 39.80104 | 123.00220 | 32038 ft | 439 kts | 218° |
| 2026-04-20 06:11 | 39.73894 | 122.95753 | 32057 ft | 441 kts | 218° |
| 2026-04-20 06:12 | 39.69396 | 122.92497 | 32039 ft | 440 kts | 218° |
| 2026-04-20 06:12 | 39.63073 | 122.87955 | 32046 ft | 438 kts | 218° |
| 2026-04-20 06:13 | 39.58574 | 122.84718 | 32048 ft | 435 kts | 218° |
| 2026-04-20 06:13 | 39.52241 | 122.80193 | 32068 ft | 437 kts | 219° |
| 2026-04-20 06:14 | 39.46880 | 122.76363 | 32080 ft | 436 kts | 219° |
| 2026-04-20 06:14 | 39.41473 | 122.72495 | 32082 ft | 437 kts | 219° |
| 2026-04-20 06:15 | 39.36993 | 122.69362 | 32086 ft | 438 kts | 218° |
| 2026-04-20 06:15 | 39.31595 | 122.65507 | 32084 ft | 435 kts | 220° |
| 2026-04-20 06:16 | 39.26358 | 122.61510 | 32085 ft | 430 kts | 222° |
| 2026-04-20 06:16 | 39.21170 | 122.57499 | 32098 ft | 431 kts | 222° |
| 2026-04-20 06:17 | 39.16000 | 122.53410 | 32097 ft | 432 kts | 221° |
| 2026-04-20 06:17 | 39.10843 | 122.49314 | 32097 ft | 431 kts | 222° |
| 2026-04-20 06:18 | 39.05684 | 122.45232 | 32097 ft | 432 kts | 222° |
| 2026-04-20 06:18 | 39.00496 | 122.41156 | 32097 ft | 430 kts | 222° |
| 2026-04-20 06:19 | 38.95354 | 122.37080 | 32102 ft | 431 kts | 223° |
| 2026-04-20 06:19 | 38.92028 | 122.34224 | 32087 ft | 420 kts | 230° |
| 2026-04-20 06:19 | 38.90664 | 122.32519 | 32100 ft | 409 kts | 237° |
| 2026-04-20 06:20 | 38.89105 | 122.29548 | 32112 ft | 396 kts | 248° |
| 2026-04-20 06:20 | 38.87922 | 122.26340 | 32128 ft | 397 kts | 250° |
| 2026-04-20 06:20 | 38.85492 | 122.19988 | 32129 ft | 399 kts | 250° |
| 2026-04-20 06:21 | 38.83116 | 122.13574 | 32116 ft | 397 kts | 250° |
| 2026-04-20 06:21 | 38.80710 | 122.07130 | 32105 ft | 397 kts | 250° |
| 2026-04-20 06:22 | 38.78328 | 122.00672 | 32106 ft | 395 kts | 250° |
| 2026-04-20 06:22 | 38.75545 | 121.93218 | 32124 ft | 395 kts | 250° |
| 2026-04-20 06:23 | 38.73178 | 121.86801 | 32124 ft | 396 kts | 250° |
| 2026-04-20 06:23 | 38.71160 | 121.81444 | 32131 ft | 394 kts | 251° |
| 2026-04-20 06:24 | 38.68792 | 121.75061 | 32133 ft | 394 kts | 250° |
| 2026-04-20 06:24 | 38.66002 | 121.67631 | 32139 ft | 392 kts | 251° |
| 2026-04-20 06:25 | 38.64023 | 121.62348 | 32134 ft | 393 kts | 251° |
| 2026-04-20 06:25 | 38.61644 | 121.55972 | 32143 ft | 391 kts | 251° |
| 2026-04-20 06:26 | 38.59249 | 121.49667 | 32139 ft | 391 kts | 251° |
| 2026-04-20 06:26 | 38.56465 | 121.42281 | 32147 ft | 389 kts | 252° |
| 2026-04-20 06:27 | 38.54491 | 121.37076 | 32152 ft | 388 kts | 251° |
| 2026-04-20 06:27 | 38.52107 | 121.30848 | 32176 ft | 391 kts | 249° |
| 2026-04-20 06:28 | 38.49308 | 121.23591 | 32155 ft | 391 kts | 251° |
| 2026-04-20 06:28 | 38.47443 | 121.18391 | 32150 ft | 387 kts | 252° |
| 2026-04-20 06:29 | 38.44603 | 121.11290 | 32143 ft | 395 kts | 244° |
| 2026-04-20 06:29 | 38.41986 | 121.06412 | 32176 ft | 396 kts | 246° |
| 2026-04-20 06:30 | 38.38974 | 121.00450 | 32168 ft | 393 kts | 246° |
| 2026-04-20 06:30 | 38.35521 | 120.93576 | 32162 ft | 392 kts | 246° |
| 2026-04-20 06:31 | 38.33062 | 120.88650 | 32174 ft | 392 kts | 246° |
| 2026-04-20 06:31 | 38.30077 | 120.82765 | 32167 ft | 390 kts | 246° |
| 2026-04-20 06:32 | 38.26698 | 120.75866 | 32160 ft | 388 kts | 248° |
| 2026-04-20 06:32 | 38.23949 | 120.71251 | 32144 ft | 408 kts | 234° |
| 2026-04-20 06:33 | 38.21563 | 120.69153 | 32144 ft | 433 kts | 221° |
| 2026-04-20 06:33 | 38.18721 | 120.67605 | 32179 ft | 444 kts | 216° |
| 2026-04-20 06:33 | 38.13110 | 120.64514 | 32179 ft | 436 kts | 219° |
| 2026-04-20 06:34 | 38.07567 | 120.61248 | 32182 ft | 429 kts | 221° |
| 2026-04-20 06:35 | 37.98077 | 120.56642 | 32147 ft | 474 kts | 201° |
| 2026-04-20 06:35 | 37.95837 | 120.56535 | 32171 ft | 488 kts | 196° |
| 2026-04-20 06:35 | 37.92462 | 120.56480 | 32210 ft | 478 kts | 198° |
| 2026-04-20 06:36 | 37.85814 | 120.56091 | 32171 ft | 477 kts | 199° |
| 2026-04-20 06:36 | 37.79216 | 120.55640 | 32178 ft | 474 kts | 199° |
| 2026-04-20 06:37 | 37.71560 | 120.55099 | 32182 ft | 474 kts | 200° |
| 2026-04-20 06:37 | 37.66063 | 120.54615 | 32165 ft | 471 kts | 201° |
| 2026-04-20 06:38 | 37.58436 | 120.53577 | 32156 ft | 464 kts | 202° |
| 2026-04-20 06:38 | 37.51971 | 120.52636 | 32156 ft | 466 kts | 202° |
| 2026-04-20 06:39 | 37.46539 | 120.51841 | 32153 ft | 466 kts | 202° |
| 2026-04-20 06:39 | 37.40039 | 120.50880 | 32157 ft | 466 kts | 202° |
| 2026-04-20 06:40 | 37.33543 | 120.49906 | 32170 ft | 463 kts | 202° |
| 2026-04-20 06:40 | 37.27032 | 120.48953 | 32180 ft | 465 kts | 202° |
| 2026-04-20 06:41 | 37.19447 | 120.47824 | 32169 ft | 463 kts | 202° |
| 2026-04-20 06:41 | 37.12987 | 120.46866 | 32188 ft | 462 kts | 202° |
| 2026-04-20 06:42 | 37.07571 | 120.46069 | 32175 ft | 464 kts | 202° |
| 2026-04-20 06:42 | 37.01070 | 120.45106 | 32195 ft | 464 kts | 202° |
| 2026-04-20 06:43 | 36.94522 | 120.44134 | 32202 ft | 465 kts | 202° |
| 2026-04-20 06:43 | 36.86933 | 120.43017 | 32199 ft | 465 kts | 202° |
| 2026-04-20 06:44 | 36.80524 | 120.42059 | 32201 ft | 467 kts | 202° |
| 2026-04-20 06:44 | 36.74050 | 120.41109 | 32206 ft | 465 kts | 202° |
| 2026-04-20 06:45 | 36.68677 | 120.40317 | 32202 ft | 468 kts | 201° |
| 2026-04-20 06:45 | 36.62143 | 120.39395 | 32194 ft | 470 kts | 201° |
| 2026-04-20 06:46 | 36.55590 | 120.38376 | 32203 ft | 466 kts | 202° |
| 2026-04-20 06:46 | 36.49010 | 120.37680 | 32196 ft | 485 kts | 194° |
| 2026-04-20 06:47 | 36.42217 | 120.37526 | 32209 ft | 479 kts | 196° |
| 2026-04-20 06:47 | 36.35479 | 120.37311 | 32212 ft | 480 kts | 196° |
| 2026-04-20 06:48 | 36.28721 | 120.36964 | 32205 ft | 473 kts | 200° |
| 2026-04-20 06:48 | 36.25540 | 120.36266 | 32198 ft | 460 kts | 206° |
| 2026-04-20 06:48 | 36.21346 | 120.35185 | 32223 ft | 461 kts | 205° |
| 2026-04-20 06:49 | 36.15006 | 120.33556 | 32248 ft | 465 kts | 205° |
| 2026-04-20 06:49 | 36.09705 | 120.32238 | 32224 ft | 466 kts | 204° |
| 2026-04-20 06:50 | 36.03347 | 120.30592 | 32217 ft | 463 kts | 205° |
| 2026-04-20 06:50 | 35.97325 | 120.28279 | 32171 ft | 436 kts | 221° |
| 2026-04-20 06:50 | 35.94916 | 120.26224 | 32198 ft | 421 kts | 230° |
| 2026-04-20 06:51 | 35.91869 | 120.23138 | 32231 ft | 427 kts | 229° |
| 2026-04-20 06:51 | 35.88044 | 120.19285 | 32230 ft | 427 kts | 229° |
| 2026-04-20 06:52 | 35.83439 | 120.14644 | 32217 ft | 424 kts | 230° |
| 2026-04-20 06:52 | 35.78904 | 120.10041 | 32199 ft | 423 kts | 231° |
| 2026-04-20 06:53 | 35.74343 | 120.05396 | 32221 ft | 426 kts | 230° |
| 2026-04-20 06:53 | 35.69685 | 120.00671 | 32223 ft | 428 kts | 230° |
| 2026-04-20 06:54 | 35.65044 | 119.95953 | 32207 ft | 428 kts | 229° |
| 2026-04-20 06:54 | 35.60414 | 119.91246 | 32219 ft | 430 kts | 230° |
| 2026-04-20 06:55 | 35.55794 | 119.86581 | 32213 ft | 431 kts | 230° |
| 2026-04-20 06:55 | 35.51113 | 119.81932 | 32217 ft | 430 kts | 230° |
| 2026-04-20 06:56 | 35.46575 | 119.77253 | 32223 ft | 429 kts | 230° |
| 2026-04-20 06:56 | 35.41356 | 119.71635 | 32205 ft | 430 kts | 227° |
| 2026-04-20 06:57 | 35.37507 | 119.67875 | 32200 ft | 412 kts | 229° |
| 2026-04-20 06:57 | 35.35303 | 119.65694 | 32057 ft | 396 kts | 230° |
| 2026-04-20 06:57 | 35.33193 | 119.63567 | 31837 ft | 393 kts | 230° |
| 2026-04-20 06:57 | 35.31111 | 119.61473 | 31623 ft | 389 kts | 231° |
| 2026-04-20 06:58 | 35.29001 | 119.59349 | 31418 ft | 387 kts | 230° |
| 2026-04-20 06:58 | 35.26912 | 119.57223 | 31205 ft | 389 kts | 231° |
| 2026-04-20 06:58 | 35.24802 | 119.55064 | 31026 ft | 389 kts | 230° |
| 2026-04-20 06:58 | 35.22704 | 119.52941 | 30843 ft | 389 kts | 230° |
| 2026-04-20 06:59 | 35.20606 | 119.50802 | 30654 ft | 388 kts | 231° |
| 2026-04-20 06:59 | 35.18507 | 119.48665 | 30472 ft | 388 kts | 230° |
| 2026-04-20 06:59 | 35.15725 | 119.45834 | 30225 ft | 390 kts | 230° |
| 2026-04-20 06:59 | 35.14352 | 119.44437 | 30124 ft | 387 kts | 230° |
| 2026-04-20 07:00 | 35.12275 | 119.42312 | 29938 ft | 384 kts | 230° |
| 2026-04-20 07:00 | 35.10212 | 119.40237 | 29735 ft | 386 kts | 230° |
| 2026-04-20 07:00 | 35.08158 | 119.38145 | 29551 ft | 387 kts | 231° |
| 2026-04-20 07:00 | 35.06063 | 119.36015 | 29379 ft | 388 kts | 230° |
| 2026-04-20 07:01 | 35.03991 | 119.33924 | 29217 ft | 387 kts | 229° |
| 2026-04-20 07:01 | 35.01945 | 119.31844 | 29058 ft | 386 kts | 229° |
| 2026-04-20 07:01 | 34.99876 | 119.29748 | 28874 ft | 385 kts | 229° |
| 2026-04-20 07:01 | 34.97826 | 119.27677 | 28700 ft | 383 kts | 229° |
| 2026-04-20 07:02 | 34.95764 | 119.25581 | 28506 ft | 383 kts | 229° |
| 2026-04-20 07:02 | 34.93706 | 119.23504 | 28318 ft | 383 kts | 229° |
| 2026-04-20 07:02 | 34.91671 | 119.21448 | 28153 ft | 382 kts | 229° |
| 2026-04-20 07:02 | 34.89614 | 119.19374 | 27970 ft | 380 kts | 229° |
| 2026-04-20 07:03 | 34.87594 | 119.17342 | 27772 ft | 379 kts | 229° |
| 2026-04-20 07:03 | 34.85566 | 119.15299 | 27583 ft | 378 kts | 229° |
| 2026-04-20 07:03 | 34.83525 | 119.13250 | 27409 ft | 377 kts | 228° |
| 2026-04-20 07:03 | 34.81504 | 119.11202 | 27217 ft | 376 kts | 229° |
| 2026-04-20 07:04 | 34.79474 | 119.09176 | 27026 ft | 376 kts | 228° |
| 2026-04-20 07:04 | 34.76785 | 119.06473 | 26776 ft | 375 kts | 229° |
| 2026-04-20 07:04 | 34.75438 | 119.05125 | 26659 ft | 375 kts | 228° |
| 2026-04-20 07:04 | 34.72768 | 119.02450 | 26414 ft | 372 kts | 228° |
| 2026-04-20 07:05 | 34.71447 | 119.01123 | 26284 ft | 371 kts | 229° |
| 2026-04-20 07:05 | 34.69432 | 118.99124 | 26099 ft | 373 kts | 227° |
| 2026-04-20 07:05 | 34.67420 | 118.97149 | 25921 ft | 372 kts | 228° |
| 2026-04-20 07:05 | 34.64780 | 118.94492 | 25685 ft | 369 kts | 228° |
| 2026-04-20 07:06 | 34.63481 | 118.93171 | 25563 ft | 367 kts | 228° |
| 2026-04-20 07:06 | 34.61529 | 118.91173 | 25376 ft | 367 kts | 228° |
| 2026-04-20 07:06 | 34.59439 | 118.89342 | 25161 ft | 377 kts | 217° |
| 2026-04-20 07:06 | 34.56958 | 118.88167 | 24950 ft | 395 kts | 202° |
| 2026-04-20 07:07 | 34.53257 | 118.87582 | 24751 ft | 401 kts | 195° |
| 2026-04-20 07:07 | 34.51426 | 118.87343 | 24644 ft | 397 kts | 197° |
| 2026-04-20 07:07 | 34.47745 | 118.86767 | 24410 ft | 399 kts | 197° |
| 2026-04-20 07:07 | 34.45910 | 118.86481 | 24314 ft | 397 kts | 197° |
| 2026-04-20 07:08 | 34.43162 | 118.86047 | 24138 ft | 396 kts | 197° |
| 2026-04-20 07:08 | 34.40419 | 118.85596 | 23962 ft | 395 kts | 197° |
| 2026-04-20 07:08 | 34.37722 | 118.85171 | 23793 ft | 394 kts | 196° |
| 2026-04-20 07:08 | 34.34090 | 118.84592 | 23549 ft | 392 kts | 197° |
| 2026-04-20 07:09 | 34.32308 | 118.84308 | 23434 ft | 391 kts | 197° |
| 2026-04-20 07:09 | 34.29618 | 118.83875 | 23259 ft | 389 kts | 197° |
| 2026-04-20 07:09 | 34.26909 | 118.83438 | 23084 ft | 387 kts | 197° |
| 2026-04-20 07:09 | 34.24245 | 118.83012 | 22899 ft | 387 kts | 196° |
| 2026-04-20 07:10 | 34.20713 | 118.82447 | 22670 ft | 385 kts | 197° |
| 2026-04-20 07:10 | 34.18924 | 118.82155 | 22551 ft | 385 kts | 196° |
| 2026-04-20 07:10 | 34.15391 | 118.81580 | 22333 ft | 384 kts | 196° |
| 2026-04-20 07:10 | 34.13617 | 118.81284 | 22216 ft | 384 kts | 197° |
| 2026-04-20 07:11 | 34.10987 | 118.80831 | 22051 ft | 382 kts | 197° |
| 2026-04-20 07:11 | 34.08345 | 118.80407 | 21875 ft | 383 kts | 195° |
| 2026-04-20 07:11 | 34.04792 | 118.79855 | 21655 ft | 381 kts | 196° |
| 2026-04-20 07:11 | 34.03050 | 118.79578 | 21539 ft | 381 kts | 195° |
| 2026-04-20 07:12 | 34.00412 | 118.79158 | 21360 ft | 383 kts | 196° |
| 2026-04-20 07:12 | 33.97769 | 118.78742 | 21191 ft | 383 kts | 195° |
| 2026-04-20 07:12 | 33.94264 | 118.78187 | 20972 ft | 379 kts | 195° |
| 2026-04-20 07:12 | 33.91656 | 118.77772 | 20800 ft | 377 kts | 195° |
| 2026-04-20 07:13 | 33.89907 | 118.77489 | 20684 ft | 376 kts | 195° |
| 2026-04-20 07:13 | 33.87310 | 118.77065 | 20507 ft | 375 kts | 195° |
| 2026-04-20 07:13 | 33.83835 | 118.76498 | 20288 ft | 376 kts | 195° |
| 2026-04-20 07:13 | 33.82102 | 118.76233 | 20176 ft | 376 kts | 195° |
| 2026-04-20 07:14 | 33.79498 | 118.75819 | 20013 ft | 375 kts | 195° |
| 2026-04-20 07:14 | 33.76930 | 118.75401 | 19840 ft | 375 kts | 195° |
| 2026-04-20 07:14 | 33.74312 | 118.74978 | 19684 ft | 375 kts | 195° |
| 2026-04-20 07:14 | 33.70883 | 118.74432 | 19466 ft | 372 kts | 195° |
| 2026-04-20 07:15 | 33.69183 | 118.74164 | 19338 ft | 372 kts | 195° |
| 2026-04-20 07:15 | 33.66620 | 118.73758 | 19169 ft | 372 kts | 195° |
| 2026-04-20 07:15 | 33.64058 | 118.73337 | 19006 ft | 370 kts | 195° |
| 2026-04-20 07:15 | 33.61482 | 118.72931 | 18832 ft | 371 kts | 195° |
| 2026-04-20 07:16 | 33.58908 | 118.72531 | 18674 ft | 370 kts | 195° |
| 2026-04-20 07:16 | 33.56369 | 118.72114 | 18506 ft | 369 kts | 195° |
| 2026-04-20 07:16 | 33.53839 | 118.71716 | 18328 ft | 368 kts | 194° |
| 2026-04-20 07:16 | 33.50441 | 118.71164 | 18106 ft | 367 kts | 195° |
| 2026-04-20 07:17 | 33.47920 | 118.70755 | 17959 ft | 367 kts | 195° |
| 2026-04-20 07:17 | 33.45359 | 118.70332 | 17862 ft | 367 kts | 194° |
| 2026-04-20 07:17 | 33.43676 | 118.70066 | 17821 ft | 366 kts | 194° |
| 2026-04-20 07:17 | 33.41151 | 118.69669 | 17798 ft | 365 kts | 194° |
| 2026-04-20 07:18 | 33.38631 | 118.69262 | 17803 ft | 365 kts | 194° |
| 2026-04-20 07:18 | 33.36107 | 118.68864 | 17821 ft | 364 kts | 194° |
| 2026-04-20 07:18 | 33.33570 | 118.68464 | 17836 ft | 366 kts | 194° |
| 2026-04-20 07:18 | 33.31041 | 118.68065 | 17828 ft | 367 kts | 194° |
| 2026-04-20 07:19 | 33.28509 | 118.67658 | 17832 ft | 367 kts | 194° |
| 2026-04-20 07:19 | 33.25983 | 118.67258 | 17825 ft | 367 kts | 194° |
| 2026-04-20 07:19 | 33.23442 | 118.66848 | 17836 ft | 365 kts | 194° |
| 2026-04-20 07:19 | 33.20934 | 118.66444 | 17828 ft | 363 kts | 194° |
| 2026-04-20 07:20 | 33.18422 | 118.66035 | 17821 ft | 365 kts | 194° |
| 2026-04-20 07:20 | 33.15881 | 118.65636 | 17825 ft | 365 kts | 194° |
| 2026-04-20 07:20 | 33.13348 | 118.65233 | 17827 ft | 365 kts | 195° |
| 2026-04-20 07:20 | 33.10013 | 118.64696 | 17825 ft | 365 kts | 194° |
| 2026-04-20 07:21 | 33.08318 | 118.64422 | 17821 ft | 366 kts | 194° |
| 2026-04-20 07:21 | 33.05795 | 118.64011 | 17842 ft | 365 kts | 194° |
| 2026-04-20 07:21 | 33.03285 | 118.63609 | 17843 ft | 366 kts | 194° |
| 2026-04-20 07:21 | 33.00736 | 118.63200 | 17842 ft | 366 kts | 194° |
| 2026-04-20 07:22 | 32.98210 | 118.62803 | 17839 ft | 365 kts | 194° |
| 2026-04-20 07:22 | 32.95692 | 118.62397 | 17838 ft | 365 kts | 194° |
| 2026-04-20 07:22 | 32.93201 | 118.61995 | 17834 ft | 364 kts | 194° |
| 2026-04-20 07:22 | 32.90667 | 118.61591 | 17828 ft | 363 kts | 194° |
| 2026-04-20 07:23 | 32.88179 | 118.61191 | 17821 ft | 363 kts | 194° |
| 2026-04-20 07:23 | 32.85658 | 118.60774 | 17817 ft | 365 kts | 194° |
| 2026-04-20 07:23 | 32.82307 | 118.60249 | 17827 ft | 364 kts | 194° |
| 2026-04-20 07:23 | 32.80650 | 118.59986 | 17823 ft | 360 kts | 194° |
| 2026-04-20 07:24 | 32.78178 | 118.59589 | 17797 ft | 354 kts | 194° |
| 2026-04-20 07:24 | 32.75754 | 118.59214 | 17772 ft | 352 kts | 194° |
| 2026-04-20 07:24 | 32.73300 | 118.58816 | 17769 ft | 351 kts | 195° |
| 2026-04-20 07:24 | 32.70896 | 118.58423 | 17786 ft | 350 kts | 194° |
| 2026-04-20 07:25 | 32.68447 | 118.58021 | 17799 ft | 353 kts | 194° |
| 2026-04-20 07:25 | 32.66024 | 118.57545 | 17820 ft | 351 kts | 199° |
| 2026-04-20 07:25 | 32.63663 | 118.56915 | 17832 ft | 347 kts | 199° |
| 2026-04-20 07:25 | 32.61299 | 118.56307 | 17822 ft | 347 kts | 199° |
| 2026-04-20 07:26 | 32.58937 | 118.55695 | 17800 ft | 348 kts | 199° |
| 2026-04-20 07:26 | 32.56572 | 118.55073 | 17573 ft | 353 kts | 199° |
| 2026-04-20 07:26 | 32.54166 | 118.54446 | 17256 ft | 351 kts | 199° |
| 2026-04-20 07:26 | 32.51783 | 118.53820 | 16887 ft | 345 kts | 198° |
| 2026-04-20 07:27 | 32.49388 | 118.53550 | 16507 ft | 351 kts | 182° |
| 2026-04-20 07:27 | 32.46945 | 118.53998 | 16174 ft | 355 kts | 174° |
| 2026-04-20 07:27 | 32.43715 | 118.54760 | 15732 ft | 356 kts | 176° |
| 2026-04-20 07:27 | 32.42105 | 118.55106 | 15518 ft | 356 kts | 175° |
| 2026-04-20 07:28 | 32.39669 | 118.55636 | 15182 ft | 355 kts | 175° |
| 2026-04-20 07:28 | 32.37235 | 118.56170 | 14840 ft | 354 kts | 175° |
| 2026-04-20 07:28 | 32.34839 | 118.56712 | 14493 ft | 352 kts | 175° |
| 2026-04-20 07:28 | 32.32451 | 118.57242 | 14139 ft | 349 kts | 175° |
| 2026-04-20 07:29 | 32.29255 | 118.57955 | 13654 ft | 347 kts | 174° |
| 2026-04-20 07:29 | 32.26892 | 118.58475 | 13308 ft | 345 kts | 175° |
| 2026-04-20 07:29 | 32.25330 | 118.58819 | 13067 ft | 344 kts | 174° |
| 2026-04-20 07:29 | 32.22971 | 118.59339 | 12704 ft | 343 kts | 174° |
| 2026-04-20 07:30 | 32.20637 | 118.59864 | 12355 ft | 341 kts | 174° |
| 2026-04-20 07:30 | 32.18309 | 118.60386 | 11995 ft | 339 kts | 174° |
| 2026-04-20 07:30 | 32.16019 | 118.60910 | 11628 ft | 332 kts | 173° |
| 2026-04-20 07:30 | 32.13776 | 118.61434 | 11225 ft | 325 kts | 173° |
| 2026-04-20 07:31 | 32.11586 | 118.61937 | 10824 ft | 318 kts | 175° |
| 2026-04-20 07:31 | 32.09420 | 118.62385 | 10419 ft | 313 kts | 174° |
| 2026-04-20 07:31 | 32.07302 | 118.62846 | 10022 ft | 308 kts | 174° |
| 2026-04-20 07:31 | 32.05186 | 118.63308 | 9618 ft | 303 kts | 173° |
| 2026-04-20 07:32 | 32.03130 | 118.63753 | 9222 ft | 299 kts | 172° |
| 2026-04-20 07:32 | 32.01104 | 118.64232 | 8830 ft | 295 kts | 171° |
| 2026-04-20 07:32 | 31.99110 | 118.64668 | 8435 ft | 291 kts | 173° |
| 2026-04-20 07:32 | 31.97137 | 118.65089 | 8040 ft | 288 kts | 171° |
| 2026-04-20 07:33 | 31.95165 | 118.65533 | 7652 ft | 284 kts | 171° |
| 2026-04-20 07:33 | 31.93246 | 118.65950 | 7269 ft | 281 kts | 172° |
| 2026-04-20 07:33 | 31.91317 | 118.66364 | 6879 ft | 279 kts | 171° |
| 2026-04-20 07:33 | 31.89426 | 118.66773 | 6501 ft | 276 kts | 171° |
| 2026-04-20 07:34 | 31.87539 | 118.67181 | 6158 ft | 272 kts | 170° |
| 2026-04-20 07:34 | 31.85675 | 118.67592 | 5997 ft | 268 kts | 169° |
| 2026-04-20 07:34 | 31.83823 | 118.68008 | 5920 ft | 272 kts | 169° |
| 2026-04-20 07:35 | 31.80221 | 118.68833 | 5571 ft | 256 kts | 169° |
| 2026-04-20 07:35 | 31.78494 | 118.69204 | 5385 ft | 251 kts | 169° |
| 2026-04-20 07:35 | 31.76759 | 118.69576 | 5223 ft | 250 kts | 173° |
| 2026-04-20 07:35 | 31.75016 | 118.69445 | 5083 ft | 252 kts | 197° |
| 2026-04-20 07:36 | 31.73457 | 118.68530 | 4997 ft | 252 kts | 221° |
| 2026-04-20 07:36 | 31.72324 | 118.66980 | 4960 ft | 251 kts | 245° |
| 2026-04-20 07:36 | 31.71637 | 118.65110 | 4967 ft | 251 kts | 251° |
| 2026-04-20 07:36 | 31.70987 | 118.63217 | 4961 ft | 251 kts | 249° |
| 2026-04-20 07:37 | 31.70292 | 118.61327 | 4960 ft | 250 kts | 248° |
| 2026-04-20 07:37 | 31.69603 | 118.59448 | 4944 ft | 251 kts | 248° |
| 2026-04-20 07:37 | 31.68910 | 118.57567 | 4926 ft | 251 kts | 249° |
| 2026-04-20 07:37 | 31.68169 | 118.55718 | 4899 ft | 252 kts | 237° |
| 2026-04-20 07:38 | 31.66964 | 118.54224 | 4889 ft | 254 kts | 214° |
| 2026-04-20 07:38 | 31.65349 | 118.53385 | 4921 ft | 250 kts | 190° |
| 2026-04-20 07:38 | 31.63671 | 118.53350 | 4913 ft | 235 kts | 166° |
| 2026-04-20 07:38 | 31.62211 | 118.54058 | 4692 ft | 226 kts | 141° |
| 2026-04-20 07:39 | 31.61180 | 118.55380 | 4426 ft | 214 kts | 113° |
| 2026-04-20 07:39 | 31.60705 | 118.57553 | 4099 ft | 204 kts | 82° |
| 2026-04-20 07:39 | 31.60873 | 118.58622 | 3961 ft | 201 kts | 72° |
| 2026-04-20 07:39 | 31.61258 | 118.60199 | 3761 ft | 201 kts | 73° |
| 2026-04-20 07:40 | 31.61603 | 118.61794 | 3541 ft | 200 kts | 75° |
| 2026-04-20 07:40 | 31.61933 | 118.63351 | 3329 ft | 197 kts | 74° |
| 2026-04-20 07:40 | 31.62254 | 118.64906 | 3098 ft | 195 kts | 74° |
| 2026-04-20 07:40 | 31.62689 | 118.66969 | 2775 ft | 193 kts | 74° |
| 2026-04-20 07:41 | 31.62895 | 118.67977 | 2631 ft | 192 kts | 74° |
| 2026-04-20 07:41 | 31.63217 | 118.69495 | 2425 ft | 190 kts | 71° |
| 2026-04-20 07:41 | 31.63770 | 118.70812 | 2277 ft | 175 kts | 56° |
| 2026-04-20 07:41 | 31.64450 | 118.71976 | 2021 ft | 169 kts | 55° |
| 2026-04-20 07:42 | 31.65059 | 118.73125 | 1828 ft | 162 kts | 57° |
| 2026-04-20 07:42 | 31.65650 | 118.74236 | 1774 ft | 155 kts | 56° |
| 2026-04-20 07:42 | 31.66204 | 118.75263 | 1894 ft | 146 kts | 56° |
| 2026-04-20 07:42 | 31.66745 | 118.76286 | 1908 ft | 148 kts | 57° |
| 2026-04-20 07:43 | 31.67496 | 118.77664 | 1636 ft | 151 kts | 56° |
| 2026-04-20 07:43 | 31.67862 | 118.78361 | 1487 ft | 149 kts | 57° |
| 2026-04-20 07:43 | 31.68605 | 118.79771 | 1145 ft | 151 kts | 57° |
| 2026-04-20 07:43 | 31.68978 | 118.80447 | 987 ft | 151 kts | 56° |
| 2026-04-20 07:44 | 31.69553 | 118.81490 | 695 ft | 155 kts | 55° |
| 2026-04-20 07:44 | 31.70124 | 118.82561 | 456 ft | 153 kts | 56° |
| 2026-04-20 07:44 | 31.70701 | 118.83626 | 266 ft | 154 kts | 57° |
| 2026-04-20 07:44 | 31.71272 | 118.84696 | 117 ft | 156 kts | 57° |
| 2026-04-20 07:45 | 31.71857 | 118.85760 | 61 ft | 147 kts | 57° |
| 2026-04-20 07:45 | 31.72282 | 118.86552 | 60 ft | 80 kts | 56° |
| 2026-04-20 07:45 | 31.72454 | 118.86870 | 60 ft | 18 kts | 54° |
| 2026-04-20 07:45 | 31.72523 | 118.86958 | 60 ft | 10 kts | 43° |
| 2026-04-20 07:46 | 31.72574 | 118.87002 | 60 ft | 8 kts | 33° |
| 2026-04-20 07:46 | 31.72619 | 118.87035 | 60 ft | 7 kts | 33° |
| 2026-04-20 07:46 | 31.72659 | 118.87065 | 60 ft | 7 kts | 31° |
| 2026-04-20 07:46 | 31.72705 | 118.87079 | 60 ft | 7 kts | 349° |
| 2026-04-20 07:47 | 31.72751 | 118.87051 | 60 ft | 7 kts | 327° |
| 2026-04-20 07:47 | 31.72794 | 118.87015 | 60 ft | 7 kts | 303° |
| 2026-04-20 07:47 | 31.72794 | 118.86954 | 60 ft | 8 kts | 242° |
| 2026-04-20 07:47 | 31.72752 | 118.86873 | 60 ft | 9 kts | 238° |
| 2026-04-20 07:48 | 31.72728 | 118.86829 | 60 ft | 9 kts | 238° |
| 2026-04-20 07:48 | 31.72692 | 118.86759 | 60 ft | 10 kts | 238° |
| 2026-04-20 07:48 | 31.72651 | 118.86684 | 60 ft | 11 kts | 238° |
| 2026-04-20 07:48 | 31.72625 | 118.86616 | 60 ft | 8 kts | 277° |
| 2026-04-20 07:49 | 31.72667 | 118.86565 | 60 ft | 9 kts | 327° |
| 2026-04-20 07:49 | 31.72725 | 118.86522 | 60 ft | 10 kts | 328° |
| 2026-04-20 07:49 | 31.72808 | 118.86461 | 60 ft | 10 kts | 327° |
| 2026-04-20 07:49 | 31.72874 | 118.86412 | 60 ft | 11 kts | 328° |
| 2026-04-20 07:50 | 31.72922 | 118.86378 | 60 ft | 12 kts | 328° |
| 2026-04-20 07:50 | 31.73021 | 118.86305 | 60 ft | 12 kts | 328° |
| 2026-04-20 07:50 | 31.73072 | 118.86268 | 60 ft | 13 kts | 328° |
| 2026-04-20 07:50 | 31.73155 | 118.86208 | 60 ft | 14 kts | 328° |
| 2026-04-20 07:51 | 31.73240 | 118.86144 | 60 ft | 14 kts | 328° |
| 2026-04-20 07:51 | 31.73328 | 118.86080 | 60 ft | 15 kts | 329° |
| 2026-04-20 07:51 | 31.73421 | 118.86012 | 60 ft | 16 kts | 328° |
| 2026-04-20 07:51 | 31.73550 | 118.85917 | 60 ft | 16 kts | 328° |
| 2026-04-20 07:52 | 31.73653 | 118.85843 | 60 ft | 17 kts | 328° |
| 2026-04-20 07:52 | 31.73715 | 118.85797 | 60 ft | 11 kts | 328° |
| 2026-04-20 07:52 | 31.73768 | 118.85780 | 60 ft | 8 kts | 22° |
| 2026-04-20 07:52 | 31.73810 | 118.85831 | 60 ft | 9 kts | 58° |
| 2026-04-20 07:53 | 31.73845 | 118.85895 | 60 ft | 9 kts | 58° |
| 2026-04-20 07:53 | 31.73882 | 118.85963 | 60 ft | 10 kts | 58° |
| 2026-04-20 07:53 | 31.73921 | 118.86037 | 60 ft | 10 kts | 57° |
| 2026-04-20 07:53 | 31.73961 | 118.86114 | 60 ft | 11 kts | 58° |
| 2026-04-20 07:54 | 31.74005 | 118.86196 | 60 ft | 12 kts | 58° |
| 2026-04-20 07:54 | 31.74066 | 118.86309 | 60 ft | 12 kts | 57° |
| 2026-04-20 07:54 | 31.74098 | 118.86369 | 60 ft | 13 kts | 57° |
| 2026-04-20 07:54 | 31.74147 | 118.86461 | 60 ft | 13 kts | 58° |
| 2026-04-20 07:55 | 31.74199 | 118.86557 | 60 ft | 14 kts | 58° |
| 2026-04-20 07:55 | 31.74253 | 118.86658 | 60 ft | 14 kts | 58° |
| 2026-04-20 07:55 | 31.74308 | 118.86761 | 60 ft | 15 kts | 58° |
| 2026-04-20 07:55 | 31.74353 | 118.86847 | 60 ft | 9 kts | 65° |
| 2026-04-20 07:56 | 31.74333 | 118.86913 | 60 ft | 9 kts | 146° |
| 2026-04-20 07:56 | 31.74316 | 118.86975 | 60 ft | 7 kts | 92° |
| 2026-04-20 07:56 | 31.74293 | 118.87031 | 60 ft | 7 kts | 148° |
| 2026-04-20 07:56 | 31.74258 | 118.87051 | 60 ft | 1 kts | 153° |
| 2026-04-20 07:57 | 31.74251 | 118.87056 | 60 ft | 0 kts | 148° |